sensor_id;sensor_type;location;lat;lon;timestamp;temperature;humidity
65559;DHT22;52203;51.998;5.140;2022-08-25T00:01:19;15.31;118.99
65559;DHT22;52203;51.998;5.140;2022-08-25T00:03:46;15.27;118.99
65559;DHT22;52203;51.998;5.140;2022-08-25T00:06:12;15.22;118.99
65559;DHT22;52203;51.998;5.140;2022-08-25T00:08:39;15.18;118.99
65559;DHT22;52203;51.998;5.140;2022-08-25T00:11:22;15.19;118.99
65559;DHT22;52203;51.998;5.140;2022-08-25T00:13:51;15.17;118.99
65559;DHT22;52203;51.998;5.140;2022-08-25T00:16:18;15.23;118.99
65559;DHT22;52203;51.998;5.140;2022-08-25T00:18:48;15.29;118.99
65559;DHT22;52203;51.998;5.140;2022-08-25T00:21:14;15.32;118.99
65559;DHT22;52203;51.998;5.140;2022-08-25T00:23:41;15.22;118.99
65559;DHT22;52203;51.998;5.140;2022-08-25T00:26:07;15.14;118.99
65559;DHT22;52203;51.998;5.140;2022-08-25T00:28:33;15.12;118.99
65559;DHT22;52203;51.998;5.140;2022-08-25T00:31:00;15.15;118.99
65559;DHT22;52203;51.998;5.140;2022-08-25T00:33:26;15.10;118.99
65559;DHT22;52203;51.998;5.140;2022-08-25T00:35:52;15.10;118.99
65559;DHT22;52203;51.998;5.140;2022-08-25T00:38:19;15.10;118.99
65559;DHT22;52203;51.998;5.140;2022-08-25T00:40:45;15.00;118.99
65559;DHT22;52203;51.998;5.140;2022-08-25T00:43:11;15.08;118.99
65559;DHT22;52203;51.998;5.140;2022-08-25T00:45:37;15.06;118.99
65559;DHT22;52203;51.998;5.140;2022-08-25T00:48:04;15.01;118.99
65559;DHT22;52203;51.998;5.140;2022-08-25T00:50:31;14.99;118.99
65559;DHT22;52203;51.998;5.140;2022-08-25T00:53:03;14.96;118.99
65559;DHT22;52203;51.998;5.140;2022-08-25T00:55:35;14.94;118.99
65559;DHT22;52203;51.998;5.140;2022-08-25T00:58:09;14.85;118.99
65559;DHT22;52203;51.998;5.140;2022-08-25T01:00:44;14.75;118.99
65559;DHT22;52203;51.998;5.140;2022-08-25T01:03:10;14.79;118.99
65559;DHT22;52203;51.998;5.140;2022-08-25T01:05:37;14.71;118.99
65559;DHT22;52203;51.998;5.140;2022-08-25T01:08:03;14.78;118.99
65559;DHT22;52203;51.998;5.140;2022-08-25T01:10:32;14.74;118.99
65559;DHT22;52203;51.998;5.140;2022-08-25T01:13:04;14.74;118.99
65559;DHT22;52203;51.998;5.140;2022-08-25T01:15:33;14.72;118.99
65559;DHT22;52203;51.998;5.140;2022-08-25T01:17:59;14.59;118.99
65559;DHT22;52203;51.998;5.140;2022-08-25T01:20:27;14.62;118.99
65559;DHT22;52203;51.998;5.140;2022-08-25T01:22:53;14.58;118.99
65559;DHT22;52203;51.998;5.140;2022-08-25T01:27:58;14.45;118.99
65559;DHT22;52203;51.998;5.140;2022-08-25T01:30:24;14.40;118.99
65559;DHT22;52203;51.998;5.140;2022-08-25T01:32:50;14.29;118.99
65559;DHT22;52203;51.998;5.140;2022-08-25T01:35:16;14.23;118.99
65559;DHT22;52203;51.998;5.140;2022-08-25T01:37:41;14.17;118.99
65559;DHT22;52203;51.998;5.140;2022-08-25T01:40:07;14.12;118.99
65559;DHT22;52203;51.998;5.140;2022-08-25T01:45:26;14.00;118.99
65559;DHT22;52203;51.998;5.140;2022-08-25T01:47:52;14.12;118.99
65559;DHT22;52203;51.998;5.140;2022-08-25T01:50:18;14.13;118.99
65559;DHT22;52203;51.998;5.140;2022-08-25T01:52:45;14.20;118.99
65559;DHT22;52203;51.998;5.140;2022-08-25T01:55:11;14.19;118.99
65559;DHT22;52203;51.998;5.140;2022-08-25T01:57:37;14.27;118.99
65559;DHT22;52203;51.998;5.140;2022-08-25T02:00:07;14.32;118.99
65559;DHT22;52203;51.998;5.140;2022-08-25T02:02:33;14.32;118.99
65559;DHT22;52203;51.998;5.140;2022-08-25T02:04:58;14.37;118.99
65559;DHT22;52203;51.998;5.140;2022-08-25T02:07:24;14.44;118.99
65559;DHT22;52203;51.998;5.140;2022-08-25T02:09:49;14.42;118.99
65559;DHT22;52203;51.998;5.140;2022-08-25T02:12:15;14.34;118.99
65559;DHT22;52203;51.998;5.140;2022-08-25T02:14:40;14.23;118.99
65559;DHT22;52203;51.998;5.140;2022-08-25T02:17:06;14.21;118.99
65559;DHT22;52203;51.998;5.140;2022-08-25T02:19:32;14.17;118.99
65559;DHT22;52203;51.998;5.140;2022-08-25T02:21:58;14.15;118.99
65559;DHT22;52203;51.998;5.140;2022-08-25T02:24:24;14.13;118.99
65559;DHT22;52203;51.998;5.140;2022-08-25T02:26:49;14.15;118.99
65559;DHT22;52203;51.998;5.140;2022-08-25T02:29:15;14.13;118.99
65559;DHT22;52203;51.998;5.140;2022-08-25T02:31:41;14.08;118.99
65559;DHT22;52203;51.998;5.140;2022-08-25T02:34:08;14.09;118.99
65559;DHT22;52203;51.998;5.140;2022-08-25T02:36:35;14.07;118.99
65559;DHT22;52203;51.998;5.140;2022-08-25T02:39:04;14.03;118.99
65559;DHT22;52203;51.998;5.140;2022-08-25T02:41:29;14.09;118.99
65559;DHT22;52203;51.998;5.140;2022-08-25T02:43:55;14.07;118.99
65559;DHT22;52203;51.998;5.140;2022-08-25T02:46:21;13.99;118.99
65559;DHT22;52203;51.998;5.140;2022-08-25T02:48:49;13.89;118.99
65559;DHT22;52203;51.998;5.140;2022-08-25T02:51:17;13.84;118.99
65559;DHT22;52203;51.998;5.140;2022-08-25T02:53:43;13.85;118.99
65559;DHT22;52203;51.998;5.140;2022-08-25T02:56:12;13.83;118.99
65559;DHT22;52203;51.998;5.140;2022-08-25T02:58:39;13.84;118.99
65559;DHT22;52203;51.998;5.140;2022-08-25T03:01:06;13.83;118.99
65559;DHT22;52203;51.998;5.140;2022-08-25T03:03:37;13.78;118.99
65559;DHT22;52203;51.998;5.140;2022-08-25T03:06:08;13.67;118.99
65559;DHT22;52203;51.998;5.140;2022-08-25T03:08:35;13.59;118.99
65559;DHT22;52203;51.998;5.140;2022-08-25T03:11:01;13.49;118.99
65559;DHT22;52203;51.998;5.140;2022-08-25T03:13:27;13.44;118.99
65559;DHT22;52203;51.998;5.140;2022-08-25T03:15:52;13.41;118.99
65559;DHT22;52203;51.998;5.140;2022-08-25T03:18:18;13.38;118.99
65559;DHT22;52203;51.998;5.140;2022-08-25T03:20:44;13.37;118.99
65559;DHT22;52203;51.998;5.140;2022-08-25T03:23:10;13.37;118.99
65559;DHT22;52203;51.998;5.140;2022-08-25T03:25:38;13.35;118.99
65559;DHT22;52203;51.998;5.140;2022-08-25T03:28:23;13.31;118.99
65559;DHT22;52203;51.998;5.140;2022-08-25T03:30:48;13.32;118.99
65559;DHT22;52203;51.998;5.140;2022-08-25T03:33:14;13.25;118.99
65559;DHT22;52203;51.998;5.140;2022-08-25T03:35:39;13.19;118.99
65559;DHT22;52203;51.998;5.140;2022-08-25T03:38:05;13.15;118.99
65559;DHT22;52203;51.998;5.140;2022-08-25T03:40:30;13.06;118.99
65559;DHT22;52203;51.998;5.140;2022-08-25T03:42:57;13.05;118.99
65559;DHT22;52203;51.998;5.140;2022-08-25T03:45:23;13.04;118.99
65559;DHT22;52203;51.998;5.140;2022-08-25T03:47:50;13.00;118.99
65559;DHT22;52203;51.998;5.140;2022-08-25T03:50:17;13.03;118.99
65559;DHT22;52203;51.998;5.140;2022-08-25T03:52:44;13.00;118.99
65559;DHT22;52203;51.998;5.140;2022-08-25T03:55:12;12.94;118.99
65559;DHT22;52203;51.998;5.140;2022-08-25T03:57:38;12.94;118.99
65559;DHT22;52203;51.998;5.140;2022-08-25T04:00:06;12.91;118.99
65559;DHT22;52203;51.998;5.140;2022-08-25T04:02:33;12.87;118.99
65559;DHT22;52203;51.998;5.140;2022-08-25T04:04:58;12.82;118.99
65559;DHT22;52203;51.998;5.140;2022-08-25T04:07:24;12.84;118.99
65559;DHT22;52203;51.998;5.140;2022-08-25T04:09:49;12.80;118.99
65559;DHT22;52203;51.998;5.140;2022-08-25T04:12:15;12.79;118.99
65559;DHT22;52203;51.998;5.140;2022-08-25T04:14:40;12.77;118.99
65559;DHT22;52203;51.998;5.140;2022-08-25T04:17:07;12.77;118.99
65559;DHT22;52203;51.998;5.140;2022-08-25T04:19:33;12.77;118.99
65559;DHT22;52203;51.998;5.140;2022-08-25T04:22:00;12.82;118.99
65559;DHT22;52203;51.998;5.140;2022-08-25T04:24:25;12.88;118.99
65559;DHT22;52203;51.998;5.140;2022-08-25T04:26:51;12.93;118.99
65559;DHT22;52203;51.998;5.140;2022-08-25T04:29:20;12.93;118.99
65559;DHT22;52203;51.998;5.140;2022-08-25T04:31:47;12.95;118.99
65559;DHT22;52203;51.998;5.140;2022-08-25T04:34:15;12.91;118.99
65559;DHT22;52203;51.998;5.140;2022-08-25T04:36:41;12.86;118.99
65559;DHT22;52203;51.998;5.140;2022-08-25T04:39:06;12.80;118.99
65559;DHT22;52203;51.998;5.140;2022-08-25T04:41:32;12.77;118.99
65559;DHT22;52203;51.998;5.140;2022-08-25T04:43:59;12.77;118.99
65559;DHT22;52203;51.998;5.140;2022-08-25T04:46:30;12.75;118.99
65559;DHT22;52203;51.998;5.140;2022-08-25T04:48:58;12.75;118.99
65559;DHT22;52203;51.998;5.140;2022-08-25T04:51:28;12.74;118.99
65559;DHT22;52203;51.998;5.140;2022-08-25T04:53:54;12.80;118.99
65559;DHT22;52203;51.998;5.140;2022-08-25T04:56:21;12.82;118.99
65559;DHT22;52203;51.998;5.140;2022-08-25T04:58:51;12.79;118.99
65559;DHT22;52203;51.998;5.140;2022-08-25T05:01:20;12.79;118.99
65559;DHT22;52203;51.998;5.140;2022-08-25T05:03:46;12.76;118.99
65559;DHT22;52203;51.998;5.140;2022-08-25T05:06:13;12.76;118.99
65559;DHT22;52203;51.998;5.140;2022-08-25T05:08:39;12.76;118.99
65559;DHT22;52203;51.998;5.140;2022-08-25T05:11:09;12.70;118.99
65559;DHT22;52203;51.998;5.140;2022-08-25T05:13:37;12.71;118.99
65559;DHT22;52203;51.998;5.140;2022-08-25T05:16:03;12.73;118.99
65559;DHT22;52203;51.998;5.140;2022-08-25T05:18:31;12.69;118.99
65559;DHT22;52203;51.998;5.140;2022-08-25T05:21:05;12.63;118.99
65559;DHT22;52203;51.998;5.140;2022-08-25T05:23:31;12.63;118.99
65559;DHT22;52203;51.998;5.140;2022-08-25T05:26:02;12.66;118.99
65559;DHT22;52203;51.998;5.140;2022-08-25T05:28:27;12.71;118.99
65559;DHT22;52203;51.998;5.140;2022-08-25T05:30:57;12.70;118.99
65559;DHT22;52203;51.998;5.140;2022-08-25T05:33:24;12.69;118.99
65559;DHT22;52203;51.998;5.140;2022-08-25T05:35:50;12.72;118.99
65559;DHT22;52203;51.998;5.140;2022-08-25T05:38:16;12.75;118.99
65559;DHT22;52203;51.998;5.140;2022-08-25T05:40:41;12.77;118.99
65559;DHT22;52203;51.998;5.140;2022-08-25T05:43:07;12.79;118.99
65559;DHT22;52203;51.998;5.140;2022-08-25T05:45:33;12.82;118.99
65559;DHT22;52203;51.998;5.140;2022-08-25T05:47:58;12.88;118.99
65559;DHT22;52203;51.998;5.140;2022-08-25T05:50:24;13.01;118.99
65559;DHT22;52203;51.998;5.140;2022-08-25T05:52:50;13.09;118.99
65559;DHT22;52203;51.998;5.140;2022-08-25T05:55:15;13.17;118.99
65559;DHT22;52203;51.998;5.140;2022-08-25T05:57:41;13.26;118.99
65559;DHT22;52203;51.998;5.140;2022-08-25T06:00:07;13.38;118.99
65559;DHT22;52203;51.998;5.140;2022-08-25T06:02:33;13.46;118.99
65559;DHT22;52203;51.998;5.140;2022-08-25T06:07:39;13.64;118.99
65559;DHT22;52203;51.998;5.140;2022-08-25T06:10:07;13.76;118.99
65559;DHT22;52203;51.998;5.140;2022-08-25T06:12:36;13.88;118.99
65559;DHT22;52203;51.998;5.140;2022-08-25T06:15:03;14.03;118.99
65559;DHT22;52203;51.998;5.140;2022-08-25T06:17:29;14.11;118.99
65559;DHT22;52203;51.998;5.140;2022-08-25T06:19:55;14.24;118.99
65559;DHT22;52203;51.998;5.140;2022-08-25T06:22:21;14.37;118.99
65559;DHT22;52203;51.998;5.140;2022-08-25T06:24:48;14.47;118.99
65559;DHT22;52203;51.998;5.140;2022-08-25T06:27:13;14.58;118.99
65559;DHT22;52203;51.998;5.140;2022-08-25T06:29:39;14.72;118.99
65559;DHT22;52203;51.998;5.140;2022-08-25T06:32:05;14.78;118.99
65559;DHT22;52203;51.998;5.140;2022-08-25T06:34:30;14.82;118.99
65559;DHT22;52203;51.998;5.140;2022-08-25T06:36:56;14.84;118.99
65559;DHT22;52203;51.998;5.140;2022-08-25T06:39:22;14.89;118.99
65559;DHT22;52203;51.998;5.140;2022-08-25T06:41:53;14.95;118.99
65559;DHT22;52203;51.998;5.140;2022-08-25T06:44:20;15.03;118.99
65559;DHT22;52203;51.998;5.140;2022-08-25T06:46:45;15.11;118.99
65559;DHT22;52203;51.998;5.140;2022-08-25T06:49:11;15.15;118.99
65559;DHT22;52203;51.998;5.140;2022-08-25T06:51:37;15.24;118.99
65559;DHT22;52203;51.998;5.140;2022-08-25T06:54:04;15.31;118.99
65559;DHT22;52203;51.998;5.140;2022-08-25T06:56:31;15.31;118.99
65559;DHT22;52203;51.998;5.140;2022-08-25T06:58:56;15.33;118.99
65559;DHT22;52203;51.998;5.140;2022-08-25T07:01:24;15.47;118.99
65559;DHT22;52203;51.998;5.140;2022-08-25T07:03:54;15.43;118.99
65559;DHT22;52203;51.998;5.140;2022-08-25T07:06:25;15.58;118.99
65559;DHT22;52203;51.998;5.140;2022-08-25T07:08:51;15.65;118.99
65559;DHT22;52203;51.998;5.140;2022-08-25T07:11:17;15.69;118.99
65559;DHT22;52203;51.998;5.140;2022-08-25T07:13:45;15.85;118.99
65559;DHT22;52203;51.998;5.140;2022-08-25T07:16:11;15.95;118.99
65559;DHT22;52203;51.998;5.140;2022-08-25T07:18:38;16.14;118.99
65559;DHT22;52203;51.998;5.140;2022-08-25T07:21:04;16.27;118.99
65559;DHT22;52203;51.998;5.140;2022-08-25T07:23:29;16.45;118.99
65559;DHT22;52203;51.998;5.140;2022-08-25T07:25:55;16.70;118.99
65559;DHT22;52203;51.998;5.140;2022-08-25T07:28:22;16.86;118.99
65559;DHT22;52203;51.998;5.140;2022-08-25T07:30:49;17.13;118.99
65559;DHT22;52203;51.998;5.140;2022-08-25T07:33:15;17.36;118.99
65559;DHT22;52203;51.998;5.140;2022-08-25T07:35:40;17.58;118.99
65559;DHT22;52203;51.998;5.140;2022-08-25T07:38:06;17.68;118.99
65559;DHT22;52203;51.998;5.140;2022-08-25T07:40:35;17.67;118.99
65559;DHT22;52203;51.998;5.140;2022-08-25T07:43:03;17.85;118.99
65559;DHT22;52203;51.998;5.140;2022-08-25T07:45:31;18.02;118.99
65559;DHT22;52203;51.998;5.140;2022-08-25T07:48:05;18.04;118.99
65559;DHT22;52203;51.998;5.140;2022-08-25T07:50:32;18.34;118.99
65559;DHT22;52203;51.998;5.140;2022-08-25T07:52:58;18.22;118.99
65559;DHT22;52203;51.998;5.140;2022-08-25T07:55:26;18.52;118.99
65559;DHT22;52203;51.998;5.140;2022-08-25T07:57:52;18.64;118.99
65559;DHT22;52203;51.998;5.140;2022-08-25T08:00:18;18.94;118.99
65559;DHT22;52203;51.998;5.140;2022-08-25T08:02:45;18.93;118.99
65559;DHT22;52203;51.998;5.140;2022-08-25T08:05:11;18.92;118.99
65559;DHT22;52203;51.998;5.140;2022-08-25T08:07:37;19.26;118.99
65559;DHT22;52203;51.998;5.140;2022-08-25T08:10:07;19.15;118.99
65559;DHT22;52203;51.998;5.140;2022-08-25T08:12:34;19.31;118.99
65559;DHT22;52203;51.998;5.140;2022-08-25T08:15:00;19.89;118.99
65559;DHT22;52203;51.998;5.140;2022-08-25T08:17:26;20.07;118.99
65559;DHT22;52203;51.998;5.140;2022-08-25T08:19:52;20.27;118.99
65559;DHT22;52203;51.998;5.140;2022-08-25T08:22:18;20.43;118.99
65559;DHT22;52203;51.998;5.140;2022-08-25T08:24:44;20.42;118.99
65559;DHT22;52203;51.998;5.140;2022-08-25T08:27:12;20.68;118.99
65559;DHT22;52203;51.998;5.140;2022-08-25T08:29:39;20.76;118.99
65559;DHT22;52203;51.998;5.140;2022-08-25T08:32:07;20.94;118.99
65559;DHT22;52203;51.998;5.140;2022-08-25T08:34:34;21.06;118.99
65559;DHT22;52203;51.998;5.140;2022-08-25T08:37:00;21.14;118.99
65559;DHT22;52203;51.998;5.140;2022-08-25T08:39:27;21.23;118.99
65559;DHT22;52203;51.998;5.140;2022-08-25T08:49:59;22.05;118.99
65559;DHT22;52203;51.998;5.140;2022-08-25T08:52:39;22.07;118.99
65559;DHT22;52203;51.998;5.140;2022-08-25T08:55:14;22.91;118.99
65559;DHT22;52203;51.998;5.140;2022-08-25T08:57:48;22.76;118.99
65559;DHT22;52203;51.998;5.140;2022-08-25T09:00:16;22.84;118.99
65559;DHT22;52203;51.998;5.140;2022-08-25T09:03:06;23.28;118.99
65559;DHT22;52203;51.998;5.140;2022-08-25T09:05:41;23.38;118.99
65559;DHT22;52203;51.998;5.140;2022-08-25T09:08:10;23.23;118.99
65559;DHT22;52203;51.998;5.140;2022-08-25T09:11:02;24.04;118.99
65559;DHT22;52203;51.998;5.140;2022-08-25T09:16:38;24.29;118.99
65559;DHT22;52203;51.998;5.140;2022-08-25T09:19:30;24.00;118.99
65559;DHT22;52203;51.998;5.140;2022-08-25T09:27:56;23.80;118.99
65559;DHT22;52203;51.998;5.140;2022-08-25T09:30:26;24.15;118.99
65559;DHT22;52203;51.998;5.140;2022-08-25T09:32:58;23.89;118.99
65559;DHT22;52203;51.998;5.140;2022-08-25T09:35:30;23.83;118.99
65559;DHT22;52203;51.998;5.140;2022-08-25T09:38:04;24.33;118.99
65559;DHT22;52203;51.998;5.140;2022-08-25T09:40:34;24.21;118.99
65559;DHT22;52203;51.998;5.140;2022-08-25T09:43:01;24.71;118.99
65559;DHT22;52203;51.998;5.140;2022-08-25T09:45:57;24.66;118.99
65559;DHT22;52203;51.998;5.140;2022-08-25T09:48:26;25.45;118.99
65559;DHT22;52203;51.998;5.140;2022-08-25T09:50:59;25.35;118.99
65559;DHT22;52203;51.998;5.140;2022-08-25T09:53:26;25.82;118.99
65559;DHT22;52203;51.998;5.140;2022-08-25T09:55:58;25.95;118.99
65559;DHT22;52203;51.998;5.140;2022-08-25T09:58:24;26.31;118.99
65559;DHT22;52203;51.998;5.140;2022-08-25T10:01:12;25.49;118.99
65559;DHT22;52203;51.998;5.140;2022-08-25T10:03:59;26.30;118.99
65559;DHT22;52203;51.998;5.140;2022-08-25T10:06:28;26.38;118.99
65559;DHT22;52203;51.998;5.140;2022-08-25T10:08:59;26.35;118.99
65559;DHT22;52203;51.998;5.140;2022-08-25T10:11:41;26.43;118.99
65559;DHT22;52203;51.998;5.140;2022-08-25T10:14:35;26.55;118.99
65559;DHT22;52203;51.998;5.140;2022-08-25T10:17:18;26.58;118.99
65559;DHT22;52203;51.998;5.140;2022-08-25T10:19:54;26.54;118.99
65559;DHT22;52203;51.998;5.140;2022-08-25T10:22:38;26.90;118.99
65559;DHT22;52203;51.998;5.140;2022-08-25T10:25:06;27.12;118.99
65559;DHT22;52203;51.998;5.140;2022-08-25T10:47:26;26.69;118.99
65559;DHT22;52203;51.998;5.140;2022-08-25T10:53:42;26.69;118.99
65559;DHT22;52203;51.998;5.140;2022-08-25T10:58:58;26.24;118.99
65559;DHT22;52203;51.998;5.140;2022-08-25T11:04:31;26.18;118.99
65559;DHT22;52203;51.998;5.140;2022-08-25T11:07:10;25.79;118.99
65559;DHT22;52203;51.998;5.140;2022-08-25T11:09:40;25.62;118.99
65559;DHT22;52203;51.998;5.140;2022-08-25T11:12:17;26.52;118.99
65559;DHT22;52203;51.998;5.140;2022-08-25T11:14:53;26.31;118.99
65559;DHT22;52203;51.998;5.140;2022-08-25T11:17:37;25.71;118.99
65559;DHT22;52203;51.998;5.140;2022-08-25T11:20:07;24.95;118.99
65559;DHT22;52203;51.998;5.140;2022-08-25T11:25:34;25.77;118.99
65559;DHT22;52203;51.998;5.140;2022-08-25T11:28:20;26.69;118.99
65559;DHT22;52203;51.998;5.140;2022-08-25T11:30:51;27.05;118.99
65559;DHT22;52203;51.998;5.140;2022-08-25T11:33:18;26.20;118.99
65559;DHT22;52203;51.998;5.140;2022-08-25T11:35:46;25.73;118.99
65559;DHT22;52203;51.998;5.140;2022-08-25T11:41:22;27.08;118.99
65559;DHT22;52203;51.998;5.140;2022-08-25T11:46:43;28.08;118.99
65559;DHT22;52203;51.998;5.140;2022-08-25T11:52:42;28.25;118.99
65559;DHT22;52203;51.998;5.140;2022-08-25T11:54:53;27.35;118.99
65559;DHT22;52203;51.998;5.140;2022-08-25T11:57:23;28.45;118.99
65559;DHT22;52203;51.998;5.140;2022-08-25T12:10:24;29.26;118.99
65559;DHT22;52203;51.998;5.140;2022-08-25T12:13:03;29.47;118.99
65559;DHT22;52203;51.998;5.140;2022-08-25T12:26:06;29.75;118.99
65559;DHT22;52203;51.998;5.140;2022-08-25T12:28:35;29.45;118.99
65559;DHT22;52203;51.998;5.140;2022-08-25T12:31:17;30.57;118.99
65559;DHT22;52203;51.998;5.140;2022-08-25T12:34:01;30.67;118.99
65559;DHT22;52203;51.998;5.140;2022-08-25T12:36:33;31.76;118.99
65559;DHT22;52203;51.998;5.140;2022-08-25T12:39:32;30.11;118.99
65559;DHT22;52203;51.998;5.140;2022-08-25T12:42:05;30.22;118.99
65559;DHT22;52203;51.998;5.140;2022-08-25T12:44:42;30.54;118.99
65559;DHT22;52203;51.998;5.140;2022-08-25T12:49:49;31.21;118.99
65559;DHT22;52203;51.998;5.140;2022-08-25T12:52:17;31.58;118.99
65559;DHT22;52203;51.998;5.140;2022-08-25T12:54:49;30.06;118.99
65559;DHT22;52203;51.998;5.140;2022-08-25T12:59:56;30.26;118.99
65559;DHT22;52203;51.998;5.140;2022-08-25T13:11:11;29.28;118.99
65559;DHT22;52203;51.998;5.140;2022-08-25T13:16:20;31.86;118.99
65559;DHT22;52203;51.998;5.140;2022-08-25T13:18:46;30.85;118.99
65559;DHT22;52203;51.998;5.140;2022-08-25T13:23:40;29.31;118.99
65559;DHT22;52203;51.998;5.140;2022-08-25T13:26:10;29.00;118.99
65559;DHT22;52203;51.998;5.140;2022-08-25T13:28:37;28.75;118.99
65559;DHT22;52203;51.998;5.140;2022-08-25T13:31:16;29.56;118.99
65559;DHT22;52203;51.998;5.140;2022-08-25T13:33:52;29.21;118.99
65559;DHT22;52203;51.998;5.140;2022-08-25T13:36:18;28.77;118.99
65559;DHT22;52203;51.998;5.140;2022-08-25T13:39:20;29.09;118.99
65559;DHT22;52203;51.998;5.140;2022-08-25T13:41:49;29.44;118.99
65559;DHT22;52203;51.998;5.140;2022-08-25T13:44:16;30.60;118.99
65559;DHT22;52203;51.998;5.140;2022-08-25T13:46:43;31.15;118.99
65559;DHT22;52203;51.998;5.140;2022-08-25T13:49:09;29.88;118.99
65559;DHT22;52203;51.998;5.140;2022-08-25T13:51:37;29.63;118.99
65559;DHT22;52203;51.998;5.140;2022-08-25T13:54:06;30.79;118.99
65559;DHT22;52203;51.998;5.140;2022-08-25T13:56:38;30.94;118.99
65559;DHT22;52203;51.998;5.140;2022-08-25T13:59:28;29.91;118.99
65559;DHT22;52203;51.998;5.140;2022-08-25T14:01:53;31.20;118.99
65559;DHT22;52203;51.998;5.140;2022-08-25T14:06:47;28.74;118.99
65559;DHT22;52203;51.998;5.140;2022-08-25T14:09:17;28.87;118.99
65559;DHT22;52203;51.998;5.140;2022-08-25T14:11:46;30.05;118.99
65559;DHT22;52203;51.998;5.140;2022-08-25T14:14:37;28.27;118.99
65559;DHT22;52203;51.998;5.140;2022-08-25T14:17:09;28.04;118.99
65559;DHT22;52203;51.998;5.140;2022-08-25T14:19:51;28.33;118.99
65559;DHT22;52203;51.998;5.140;2022-08-25T14:22:22;27.00;118.99
65559;DHT22;52203;51.998;5.140;2022-08-25T14:24:51;28.11;118.99
65559;DHT22;52203;51.998;5.140;2022-08-25T14:27:20;28.89;118.99
65559;DHT22;52203;51.998;5.140;2022-08-25T14:29:52;29.38;118.99
65559;DHT22;52203;51.998;5.140;2022-08-25T14:32:23;29.95;118.99
65559;DHT22;52203;51.998;5.140;2022-08-25T14:34:51;29.32;118.99
65559;DHT22;52203;51.998;5.140;2022-08-25T14:37:18;28.90;118.99
65559;DHT22;52203;51.998;5.140;2022-08-25T14:39:44;29.00;118.99
65559;DHT22;52203;51.998;5.140;2022-08-25T14:42:11;29.12;118.99
65559;DHT22;52203;51.998;5.140;2022-08-25T14:44:37;29.16;118.99
65559;DHT22;52203;51.998;5.140;2022-08-25T14:47:04;29.38;118.99
65559;DHT22;52203;51.998;5.140;2022-08-25T14:49:34;29.74;118.99
65559;DHT22;52203;51.998;5.140;2022-08-25T14:54:40;27.57;118.99
65559;DHT22;52203;51.998;5.140;2022-08-25T14:57:05;28.56;118.99
65559;DHT22;52203;51.998;5.140;2022-08-25T14:59:30;27.59;118.99
65559;DHT22;52203;51.998;5.140;2022-08-25T15:01:57;27.52;118.99
65559;DHT22;52203;51.998;5.140;2022-08-25T15:04:26;27.98;118.99
65559;DHT22;52203;51.998;5.140;2022-08-25T15:06:57;27.96;118.99
65559;DHT22;52203;51.998;5.140;2022-08-25T15:09:23;28.14;118.99
65559;DHT22;52203;51.998;5.140;2022-08-25T15:11:52;28.20;118.99
65559;DHT22;52203;51.998;5.140;2022-08-25T15:14:20;27.78;118.99
65559;DHT22;52203;51.998;5.140;2022-08-25T15:16:54;28.21;118.99
65559;DHT22;52203;51.998;5.140;2022-08-25T15:19:22;29.65;118.99
65559;DHT22;52203;51.998;5.140;2022-08-25T15:21:49;30.07;118.99
65559;DHT22;52203;51.998;5.140;2022-08-25T15:24:16;30.51;118.99
65559;DHT22;52203;51.998;5.140;2022-08-25T15:26:55;29.49;118.99
65559;DHT22;52203;51.998;5.140;2022-08-25T15:29:21;28.03;118.99
65559;DHT22;52203;51.998;5.140;2022-08-25T15:31:47;27.83;118.99
65559;DHT22;52203;51.998;5.140;2022-08-25T15:34:13;28.02;118.99
65559;DHT22;52203;51.998;5.140;2022-08-25T15:36:39;29.18;118.99
65559;DHT22;52203;51.998;5.140;2022-08-25T15:39:05;28.20;118.99
65559;DHT22;52203;51.998;5.140;2022-08-25T15:41:31;27.17;118.99
65559;DHT22;52203;51.998;5.140;2022-08-25T15:43:57;25.88;118.99
65559;DHT22;52203;51.998;5.140;2022-08-25T15:46:26;25.28;118.99
65559;DHT22;52203;51.998;5.140;2022-08-25T15:48:57;24.82;118.99
65559;DHT22;52203;51.998;5.140;2022-08-25T15:51:24;24.27;118.99
65559;DHT22;52203;51.998;5.140;2022-08-25T15:53:50;23.84;118.99
65559;DHT22;52203;51.998;5.140;2022-08-25T15:56:15;23.25;118.99
65559;DHT22;52203;51.998;5.140;2022-08-25T15:58:44;23.00;118.99
65559;DHT22;52203;51.998;5.140;2022-08-25T16:01:16;22.83;118.99
65559;DHT22;52203;51.998;5.140;2022-08-25T16:03:42;22.50;118.99
65559;DHT22;52203;51.998;5.140;2022-08-25T16:06:08;23.01;118.99
65559;DHT22;52203;51.998;5.140;2022-08-25T16:08:34;23.39;118.99
65559;DHT22;52203;51.998;5.140;2022-08-25T16:11:00;23.41;118.99
65559;DHT22;52203;51.998;5.140;2022-08-25T16:13:26;23.75;118.99
65559;DHT22;52203;51.998;5.140;2022-08-25T16:15:52;24.03;118.99
65559;DHT22;52203;51.998;5.140;2022-08-25T16:18:18;24.18;118.99
65559;DHT22;52203;51.998;5.140;2022-08-25T16:20:45;24.06;118.99
65559;DHT22;52203;51.998;5.140;2022-08-25T16:23:12;24.25;118.99
65559;DHT22;52203;51.998;5.140;2022-08-25T16:25:39;24.40;118.99
65559;DHT22;52203;51.998;5.140;2022-08-25T16:28:06;24.13;118.99
65559;DHT22;52203;51.998;5.140;2022-08-25T16:30:32;22.96;118.99
65559;DHT22;52203;51.998;5.140;2022-08-25T16:32:57;22.43;118.99
65559;DHT22;52203;51.998;5.140;2022-08-25T16:35:23;23.10;118.99
65559;DHT22;52203;51.998;5.140;2022-08-25T16:37:48;23.20;118.99
65559;DHT22;52203;51.998;5.140;2022-08-25T16:40:14;22.70;118.99
65559;DHT22;52203;51.998;5.140;2022-08-25T16:42:39;22.44;118.99
65559;DHT22;52203;51.998;5.140;2022-08-25T16:45:05;22.27;118.99
65559;DHT22;52203;51.998;5.140;2022-08-25T16:47:34;22.48;118.99
65559;DHT22;52203;51.998;5.140;2022-08-25T16:50:01;21.76;118.99
65559;DHT22;52203;51.998;5.140;2022-08-25T16:52:27;21.99;118.99
65559;DHT22;52203;51.998;5.140;2022-08-25T16:55:11;20.94;118.99
65559;DHT22;52203;51.998;5.140;2022-08-25T16:57:39;20.96;118.99
65559;DHT22;52203;51.998;5.140;2022-08-25T17:00:08;20.90;118.99
65559;DHT22;52203;51.998;5.140;2022-08-25T17:02:38;21.13;118.99
65559;DHT22;52203;51.998;5.140;2022-08-25T17:05:05;20.94;118.99
65559;DHT22;52203;51.998;5.140;2022-08-25T17:07:32;21.23;118.99
65559;DHT22;52203;51.998;5.140;2022-08-25T17:09:57;20.73;118.99
65559;DHT22;52203;51.998;5.140;2022-08-25T17:12:24;20.51;118.99
65559;DHT22;52203;51.998;5.140;2022-08-25T17:14:50;20.78;118.99
65559;DHT22;52203;51.998;5.140;2022-08-25T17:17:16;21.11;118.99